sensor_id;sensor_type;location;lat;lon;timestamp;temperature;humidity
8402;DHT22;4238;48.404;9.498;2022-07-29T00:01:54;17.60;99.90
8402;DHT22;4238;48.404;9.498;2022-07-29T00:04:21;17.70;99.90
8402;DHT22;4238;48.404;9.498;2022-07-29T00:06:47;17.50;99.90
8402;DHT22;4238;48.404;9.498;2022-07-29T00:09:16;17.70;99.90
8402;DHT22;4238;48.404;9.498;2022-07-29T00:11:43;17.60;99.90
8402;DHT22;4238;48.404;9.498;2022-07-29T00:14:10;17.60;99.90
8402;DHT22;4238;48.404;9.498;2022-07-29T00:16:37;17.60;99.90
8402;DHT22;4238;48.404;9.498;2022-07-29T00:19:04;17.50;99.90
8402;DHT22;4238;48.404;9.498;2022-07-29T00:21:31;17.50;99.90
8402;DHT22;4238;48.404;9.498;2022-07-29T00:23:57;17.50;99.90
8402;DHT22;4238;48.404;9.498;2022-07-29T00:26:26;17.50;99.90
8402;DHT22;4238;48.404;9.498;2022-07-29T00:28:57;17.50;99.90
8402;DHT22;4238;48.404;9.498;2022-07-29T00:31:24;17.50;99.90
8402;DHT22;4238;48.404;9.498;2022-07-29T00:33:51;17.50;99.90
8402;DHT22;4238;48.404;9.498;2022-07-29T00:36:18;17.50;99.90
8402;DHT22;4238;48.404;9.498;2022-07-29T00:38:46;17.50;99.90
8402;DHT22;4238;48.404;9.498;2022-07-29T00:41:13;17.50;99.90
8402;DHT22;4238;48.404;9.498;2022-07-29T00:43:41;17.40;99.90
8402;DHT22;4238;48.404;9.498;2022-07-29T00:46:08;17.30;99.90
8402;DHT22;4238;48.404;9.498;2022-07-29T00:48:35;17.40;99.90
8402;DHT22;4238;48.404;9.498;2022-07-29T00:51:03;17.40;99.90
8402;DHT22;4238;48.404;9.498;2022-07-29T00:53:31;17.40;99.90
8402;DHT22;4238;48.404;9.498;2022-07-29T00:55:59;17.40;99.90
8402;DHT22;4238;48.404;9.498;2022-07-29T00:58:26;17.40;99.90
8402;DHT22;4238;48.404;9.498;2022-07-29T01:00:55;17.40;99.90
8402;DHT22;4238;48.404;9.498;2022-07-29T01:03:22;17.20;99.90
8402;DHT22;4238;48.404;9.498;2022-07-29T01:05:49;17.10;99.90
8402;DHT22;4238;48.404;9.498;2022-07-29T01:08:16;17.00;99.90
8402;DHT22;4238;48.404;9.498;2022-07-29T01:10:44;17.00;99.90
8402;DHT22;4238;48.404;9.498;2022-07-29T01:13:12;17.00;99.90
8402;DHT22;4238;48.404;9.498;2022-07-29T01:15:44;17.10;99.90
8402;DHT22;4238;48.404;9.498;2022-07-29T01:18:17;17.10;99.90
8402;DHT22;4238;48.404;9.498;2022-07-29T01:21:11;17.10;99.90
8402;DHT22;4238;48.404;9.498;2022-07-29T01:23:52;17.00;99.90
8402;DHT22;4238;48.404;9.498;2022-07-29T01:26:42;17.00;99.90
8402;DHT22;4238;48.404;9.498;2022-07-29T01:34:28;17.10;99.90
8402;DHT22;4238;48.404;9.498;2022-07-29T01:37:03;17.00;99.90
8402;DHT22;4238;48.404;9.498;2022-07-29T01:39:34;17.00;99.90
8402;DHT22;4238;48.404;9.498;2022-07-29T01:42:15;16.90;99.90
8402;DHT22;4238;48.404;9.498;2022-07-29T01:44:50;16.90;99.90
8402;DHT22;4238;48.404;9.498;2022-07-29T01:47:23;17.00;99.90
8402;DHT22;4238;48.404;9.498;2022-07-29T01:49:55;17.00;99.90
8402;DHT22;4238;48.404;9.498;2022-07-29T01:52:27;16.90;99.90
8402;DHT22;4238;48.404;9.498;2022-07-29T01:54:59;16.90;99.90
8402;DHT22;4238;48.404;9.498;2022-07-29T01:57:31;17.00;99.90
8402;DHT22;4238;48.404;9.498;2022-07-29T02:00:01;17.00;99.90
8402;DHT22;4238;48.404;9.498;2022-07-29T02:02:30;16.90;99.90
8402;DHT22;4238;48.404;9.498;2022-07-29T02:05:00;16.90;99.90
8402;DHT22;4238;48.404;9.498;2022-07-29T02:07:29;17.00;99.90
8402;DHT22;4238;48.404;9.498;2022-07-29T02:09:58;17.00;99.90
8402;DHT22;4238;48.404;9.498;2022-07-29T02:12:28;17.00;99.90
8402;DHT22;4238;48.404;9.498;2022-07-29T02:14:57;16.90;99.90
8402;DHT22;4238;48.404;9.498;2022-07-29T02:17:29;16.80;99.90
8402;DHT22;4238;48.404;9.498;2022-07-29T02:20:02;16.60;99.90
8402;DHT22;4238;48.404;9.498;2022-07-29T02:22:30;16.60;99.90
8402;DHT22;4238;48.404;9.498;2022-07-29T02:24:58;16.60;99.90
8402;DHT22;4238;48.404;9.498;2022-07-29T02:27:26;16.50;99.90
8402;DHT22;4238;48.404;9.498;2022-07-29T02:29:55;16.30;99.90
8402;DHT22;4238;48.404;9.498;2022-07-29T02:32:26;16.10;99.90
8402;DHT22;4238;48.404;9.498;2022-07-29T02:34:54;16.10;99.90
8402;DHT22;4238;48.404;9.498;2022-07-29T02:37:24;15.90;99.90
8402;DHT22;4238;48.404;9.498;2022-07-29T02:39:53;15.80;99.90
8402;DHT22;4238;48.404;9.498;2022-07-29T02:42:21;15.70;99.90
8402;DHT22;4238;48.404;9.498;2022-07-29T02:44:50;15.70;99.90
8402;DHT22;4238;48.404;9.498;2022-07-29T02:47:22;15.50;99.90
8402;DHT22;4238;48.404;9.498;2022-07-29T02:49:54;15.50;99.90
8402;DHT22;4238;48.404;9.498;2022-07-29T02:52:26;15.50;99.90
8402;DHT22;4238;48.404;9.498;2022-07-29T02:55:00;15.50;99.90
8402;DHT22;4238;48.404;9.498;2022-07-29T02:57:32;15.50;99.90
8402;DHT22;4238;48.404;9.498;2022-07-29T03:00:03;15.40;99.90
8402;DHT22;4238;48.404;9.498;2022-07-29T03:02:34;15.50;99.90
8402;DHT22;4238;48.404;9.498;2022-07-29T03:05:03;15.40;99.90
8402;DHT22;4238;48.404;9.498;2022-07-29T03:07:31;15.30;99.90
8402;DHT22;4238;48.404;9.498;2022-07-29T03:10:00;15.30;99.90
8402;DHT22;4238;48.404;9.498;2022-07-29T03:12:28;15.40;99.90
8402;DHT22;4238;48.404;9.498;2022-07-29T03:14:56;15.30;99.90
8402;DHT22;4238;48.404;9.498;2022-07-29T03:17:24;15.30;99.90
8402;DHT22;4238;48.404;9.498;2022-07-29T03:19:52;15.20;99.90
8402;DHT22;4238;48.404;9.498;2022-07-29T03:22:19;15.20;99.90
8402;DHT22;4238;48.404;9.498;2022-07-29T03:24:47;15.20;99.90
8402;DHT22;4238;48.404;9.498;2022-07-29T03:27:14;15.30;99.90
8402;DHT22;4238;48.404;9.498;2022-07-29T03:29:42;15.40;99.90
8402;DHT22;4238;48.404;9.498;2022-07-29T03:32:08;15.50;99.90
8402;DHT22;4238;48.404;9.498;2022-07-29T03:34:36;15.50;99.90
8402;DHT22;4238;48.404;9.498;2022-07-29T03:37:04;15.40;99.90
8402;DHT22;4238;48.404;9.498;2022-07-29T03:39:35;15.30;99.90
8402;DHT22;4238;48.404;9.498;2022-07-29T03:42:05;15.20;99.90
8402;DHT22;4238;48.404;9.498;2022-07-29T03:44:34;15.20;99.90
8402;DHT22;4238;48.404;9.498;2022-07-29T03:47:04;15.10;99.90
8402;DHT22;4238;48.404;9.498;2022-07-29T03:49:35;15.00;99.90
8402;DHT22;4238;48.404;9.498;2022-07-29T03:52:04;14.90;99.90
8402;DHT22;4238;48.404;9.498;2022-07-29T03:54:31;15.00;99.90
8402;DHT22;4238;48.404;9.498;2022-07-29T03:56:59;15.00;99.90
8402;DHT22;4238;48.404;9.498;2022-07-29T03:59:30;15.10;99.90
8402;DHT22;4238;48.404;9.498;2022-07-29T04:01:58;15.10;99.90
8402;DHT22;4238;48.404;9.498;2022-07-29T04:04:25;15.00;99.90
8402;DHT22;4238;48.404;9.498;2022-07-29T04:06:52;15.00;99.90
8402;DHT22;4238;48.404;9.498;2022-07-29T04:09:19;14.90;99.90
8402;DHT22;4238;48.404;9.498;2022-07-29T04:11:46;14.90;99.90
8402;DHT22;4238;48.404;9.498;2022-07-29T04:14:13;14.80;99.90
8402;DHT22;4238;48.404;9.498;2022-07-29T04:16:41;14.80;99.90
8402;DHT22;4238;48.404;9.498;2022-07-29T04:19:08;14.80;99.90
8402;DHT22;4238;48.404;9.498;2022-07-29T04:21:37;14.80;99.90
8402;DHT22;4238;48.404;9.498;2022-07-29T04:24:05;14.90;99.90
8402;DHT22;4238;48.404;9.498;2022-07-29T04:26:32;14.90;99.90
8402;DHT22;4238;48.404;9.498;2022-07-29T04:28:59;14.90;99.90
8402;DHT22;4238;48.404;9.498;2022-07-29T04:31:26;15.00;99.90
8402;DHT22;4238;48.404;9.498;2022-07-29T04:33:54;15.00;99.90
8402;DHT22;4238;48.404;9.498;2022-07-29T04:36:21;15.20;99.90
8402;DHT22;4238;48.404;9.498;2022-07-29T04:38:48;15.10;99.90
8402;DHT22;4238;48.404;9.498;2022-07-29T04:41:15;15.00;99.90
8402;DHT22;4238;48.404;9.498;2022-07-29T04:43:42;15.00;99.90
8402;DHT22;4238;48.404;9.498;2022-07-29T04:46:09;15.20;99.90
8402;DHT22;4238;48.404;9.498;2022-07-29T04:48:36;15.10;99.90
8402;DHT22;4238;48.404;9.498;2022-07-29T04:51:04;15.40;99.90
8402;DHT22;4238;48.404;9.498;2022-07-29T04:53:31;15.50;99.90
8402;DHT22;4238;48.404;9.498;2022-07-29T04:55:58;15.50;99.90
8402;DHT22;4238;48.404;9.498;2022-07-29T04:58:25;15.70;99.90
8402;DHT22;4238;48.404;9.498;2022-07-29T05:00:52;15.70;99.90
8402;DHT22;4238;48.404;9.498;2022-07-29T05:03:19;15.80;99.90
8402;DHT22;4238;48.404;9.498;2022-07-29T05:05:46;15.90;99.90
8402;DHT22;4238;48.404;9.498;2022-07-29T05:08:14;16.00;99.90
8402;DHT22;4238;48.404;9.498;2022-07-29T05:10:41;16.00;99.90
8402;DHT22;4238;48.404;9.498;2022-07-29T05:13:08;16.00;99.90
8402;DHT22;4238;48.404;9.498;2022-07-29T05:15:35;16.00;99.90
8402;DHT22;4238;48.404;9.498;2022-07-29T05:18:02;16.10;99.90
8402;DHT22;4238;48.404;9.498;2022-07-29T05:20:29;16.10;99.90
8402;DHT22;4238;48.404;9.498;2022-07-29T05:22:57;16.20;99.90
8402;DHT22;4238;48.404;9.498;2022-07-29T05:25:26;16.30;99.90
8402;DHT22;4238;48.404;9.498;2022-07-29T05:27:53;16.50;99.90
8402;DHT22;4238;48.404;9.498;2022-07-29T05:30:21;16.60;99.90
8402;DHT22;4238;48.404;9.498;2022-07-29T05:32:48;16.60;99.90
8402;DHT22;4238;48.404;9.498;2022-07-29T05:35:15;16.70;99.90
8402;DHT22;4238;48.404;9.498;2022-07-29T05:37:42;16.80;99.90
8402;DHT22;4238;48.404;9.498;2022-07-29T05:40:10;16.90;99.90
8402;DHT22;4238;48.404;9.498;2022-07-29T05:42:38;16.90;99.90
8402;DHT22;4238;48.404;9.498;2022-07-29T05:45:06;16.90;99.90
8402;DHT22;4238;48.404;9.498;2022-07-29T05:47:33;16.90;99.90
8402;DHT22;4238;48.404;9.498;2022-07-29T05:50:00;16.90;99.90
8402;DHT22;4238;48.404;9.498;2022-07-29T05:52:27;16.80;99.90
8402;DHT22;4238;48.404;9.498;2022-07-29T05:54:54;16.90;99.90
8402;DHT22;4238;48.404;9.498;2022-07-29T05:57:23;17.00;99.90
8402;DHT22;4238;48.404;9.498;2022-07-29T05:59:52;17.00;99.90
8402;DHT22;4238;48.404;9.498;2022-07-29T06:02:19;17.20;99.90
8402;DHT22;4238;48.404;9.498;2022-07-29T06:04:46;17.20;99.90
8402;DHT22;4238;48.404;9.498;2022-07-29T06:07:14;17.30;99.90
8402;DHT22;4238;48.404;9.498;2022-07-29T06:09:41;17.40;99.90
8402;DHT22;4238;48.404;9.498;2022-07-29T06:12:09;17.40;99.90
8402;DHT22;4238;48.404;9.498;2022-07-29T06:14:36;17.50;99.90
8402;DHT22;4238;48.404;9.498;2022-07-29T06:17:04;17.60;99.90
8402;DHT22;4238;48.404;9.498;2022-07-29T06:19:34;17.60;99.90
8402;DHT22;4238;48.404;9.498;2022-07-29T06:22:01;17.60;99.90
8402;DHT22;4238;48.404;9.498;2022-07-29T06:24:28;17.70;99.90
8402;DHT22;4238;48.404;9.498;2022-07-29T06:26:56;17.80;99.90
8402;DHT22;4238;48.404;9.498;2022-07-29T06:29:23;17.80;99.90
8402;DHT22;4238;48.404;9.498;2022-07-29T06:31:50;17.90;99.90
8402;DHT22;4238;48.404;9.498;2022-07-29T06:34:18;17.90;99.90
8402;DHT22;4238;48.404;9.498;2022-07-29T06:36:45;18.10;99.90
8402;DHT22;4238;48.404;9.498;2022-07-29T06:39:12;18.50;99.90
8402;DHT22;4238;48.404;9.498;2022-07-29T06:41:39;19.00;99.90
8402;DHT22;4238;48.404;9.498;2022-07-29T06:44:06;19.30;99.90
8402;DHT22;4238;48.404;9.498;2022-07-29T06:46:33;19.60;72.00
8402;DHT22;4238;48.404;9.498;2022-07-29T06:49:00;19.80;90.50
8402;DHT22;4238;48.404;9.498;2022-07-29T06:51:29;19.80;93.60
8402;DHT22;4238;48.404;9.498;2022-07-29T06:53:56;19.90;70.90
8402;DHT22;4238;48.404;9.498;2022-07-29T06:56:24;20.30;50.00
8402;DHT22;4238;48.404;9.498;2022-07-29T06:58:51;20.50;36.60
8402;DHT22;4238;48.404;9.498;2022-07-29T07:01:18;20.40;47.00
8402;DHT22;4238;48.404;9.498;2022-07-29T07:03:45;20.20;40.70
8402;DHT22;4238;48.404;9.498;2022-07-29T07:06:12;20.10;76.60
8402;DHT22;4238;48.404;9.498;2022-07-29T07:08:40;20.00;75.60
8402;DHT22;4238;48.404;9.498;2022-07-29T07:11:07;19.90;85.60
8402;DHT22;4238;48.404;9.498;2022-07-29T07:13:34;20.10;79.80
8402;DHT22;4238;48.404;9.498;2022-07-29T07:16:02;20.60;57.20
8402;DHT22;4238;48.404;9.498;2022-07-29T07:18:29;21.00;51.20
8402;DHT22;4238;48.404;9.498;2022-07-29T07:20:56;21.30;51.40
8402;DHT22;4238;48.404;9.498;2022-07-29T07:23:23;21.40;15.10
8402;DHT22;4238;48.404;9.498;2022-07-29T07:25:52;21.40;43.40
8402;DHT22;4238;48.404;9.498;2022-07-29T07:28:19;21.80;18.70
8402;DHT22;4238;48.404;9.498;2022-07-29T07:30:46;22.40;1.00
8402;DHT22;4238;48.404;9.498;2022-07-29T07:33:13;22.80;1.00
8402;DHT22;4238;48.404;9.498;2022-07-29T07:35:40;23.00;1.00
8402;DHT22;4238;48.404;9.498;2022-07-29T07:38:07;23.00;1.00
8402;DHT22;4238;48.404;9.498;2022-07-29T07:40:34;23.10;99.90
8402;DHT22;4238;48.404;9.498;2022-07-29T07:43:03;23.10;99.90
8402;DHT22;4238;48.404;9.498;2022-07-29T07:45:30;23.40;99.90
8402;DHT22;4238;48.404;9.498;2022-07-29T07:47:58;23.70;99.90
8402;DHT22;4238;48.404;9.498;2022-07-29T07:50:25;24.00;1.00
8402;DHT22;4238;48.404;9.498;2022-07-29T07:52:53;24.10;1.00
8402;DHT22;4238;48.404;9.498;2022-07-29T07:55:23;24.40;74.00
8402;DHT22;4238;48.404;9.498;2022-07-29T07:57:50;24.50;99.90
8402;DHT22;4238;48.404;9.498;2022-07-29T08:00:19;24.50;99.90
8402;DHT22;4238;48.404;9.498;2022-07-29T08:02:46;24.30;99.90
8402;DHT22;4238;48.404;9.498;2022-07-29T08:05:13;24.30;99.90
8402;DHT22;4238;48.404;9.498;2022-07-29T08:07:43;24.10;1.00
8402;DHT22;4238;48.404;9.498;2022-07-29T08:10:10;23.90;1.00
8402;DHT22;4238;48.404;9.498;2022-07-29T08:12:37;23.70;99.90
8402;DHT22;4238;48.404;9.498;2022-07-29T08:15:05;23.90;99.90
8402;DHT22;4238;48.404;9.498;2022-07-29T08:17:34;24.00;62.80
8402;DHT22;4238;48.404;9.498;2022-07-29T08:20:01;24.00;1.00
8402;DHT22;4238;48.404;9.498;2022-07-29T08:22:29;24.10;1.00
8402;DHT22;4238;48.404;9.498;2022-07-29T08:24:55;24.20;99.90
8402;DHT22;4238;48.404;9.498;2022-07-29T08:27:23;24.40;99.90
8402;DHT22;4238;48.404;9.498;2022-07-29T08:29:51;24.30;1.00
8402;DHT22;4238;48.404;9.498;2022-07-29T08:32:18;24.50;99.90
8402;DHT22;4238;48.404;9.498;2022-07-29T08:34:47;24.20;99.90
8402;DHT22;4238;48.404;9.498;2022-07-29T08:37:14;24.20;99.90
8402;DHT22;4238;48.404;9.498;2022-07-29T08:39:40;24.40;1.00
8402;DHT22;4238;48.404;9.498;2022-07-29T08:42:07;24.50;99.90
8402;DHT22;4238;48.404;9.498;2022-07-29T08:44:35;24.70;1.00
8402;DHT22;4238;48.404;9.498;2022-07-29T08:47:03;24.90;99.90
8402;DHT22;4238;48.404;9.498;2022-07-29T08:49:30;25.20;1.00
8402;DHT22;4238;48.404;9.498;2022-07-29T08:52:00;25.40;1.00
8402;DHT22;4238;48.404;9.498;2022-07-29T08:54:27;25.70;99.90
8402;DHT22;4238;48.404;9.498;2022-07-29T08:56:54;26.00;99.90
8402;DHT22;4238;48.404;9.498;2022-07-29T08:59:22;26.40;99.90
8402;DHT22;4238;48.404;9.498;2022-07-29T09:01:53;26.50;99.90
8402;DHT22;4238;48.404;9.498;2022-07-29T09:04:20;26.60;99.90
8402;DHT22;4238;48.404;9.498;2022-07-29T09:06:51;26.60;1.00
8402;DHT22;4238;48.404;9.498;2022-07-29T09:09:20;26.80;74.50
8402;DHT22;4238;48.404;9.498;2022-07-29T09:11:47;27.00;1.00
8402;DHT22;4238;48.404;9.498;2022-07-29T09:14:14;27.10;99.90
8402;DHT22;4238;48.404;9.498;2022-07-29T09:16:45;26.60;99.90
8402;DHT22;4238;48.404;9.498;2022-07-29T09:19:20;26.20;99.90
8402;DHT22;4238;48.404;9.498;2022-07-29T09:21:47;26.00;99.90
8402;DHT22;4238;48.404;9.498;2022-07-29T09:24:42;26.00;99.90
8402;DHT22;4238;48.404;9.498;2022-07-29T09:27:19;26.20;99.90
8402;DHT22;4238;48.404;9.498;2022-07-29T09:29:48;26.60;99.90
8402;DHT22;4238;48.404;9.498;2022-07-29T09:32:21;26.80;99.90
8402;DHT22;4238;48.404;9.498;2022-07-29T09:34:48;26.90;99.90
8402;DHT22;4238;48.404;9.498;2022-07-29T09:37:26;27.00;99.90
8402;DHT22;4238;48.404;9.498;2022-07-29T09:39:54;27.00;99.90
8402;DHT22;4238;48.404;9.498;2022-07-29T09:42:28;26.80;71.50
8402;DHT22;4238;48.404;9.498;2022-07-29T09:44:55;26.70;99.90
8402;DHT22;4238;48.404;9.498;2022-07-29T09:47:22;26.90;99.40
8402;DHT22;4238;48.404;9.498;2022-07-29T09:50:07;27.10;44.80
8402;DHT22;4238;48.404;9.498;2022-07-29T09:52:44;27.30;21.70
8402;DHT22;4238;48.404;9.498;2022-07-29T09:55:13;27.50;1.00
8402;DHT22;4238;48.404;9.498;2022-07-29T09:57:40;27.50;33.60
8402;DHT22;4238;48.404;9.498;2022-07-29T10:00:10;27.50;33.30
8402;DHT22;4238;48.404;9.498;2022-07-29T10:02:39;27.50;99.90
8402;DHT22;4238;48.404;9.498;2022-07-29T10:05:16;27.90;99.90
8402;DHT22;4238;48.404;9.498;2022-07-29T10:07:44;28.20;99.90
8402;DHT22;4238;48.404;9.498;2022-07-29T10:10:19;28.30;99.90
8402;DHT22;4238;48.404;9.498;2022-07-29T10:12:52;27.70;99.90
8402;DHT22;4238;48.404;9.498;2022-07-29T10:15:21;28.10;99.90
8402;DHT22;4238;48.404;9.498;2022-07-29T10:17:48;27.70;99.90
8402;DHT22;4238;48.404;9.498;2022-07-29T10:20:16;27.40;1.00
8402;DHT22;4238;48.404;9.498;2022-07-29T10:22:43;26.70;1.00
8402;DHT22;4238;48.404;9.498;2022-07-29T10:25:14;26.60;67.90
8402;DHT22;4238;48.404;9.498;2022-07-29T10:27:41;26.50;99.90
8402;DHT22;4238;48.404;9.498;2022-07-29T10:30:10;26.50;1.00
8402;DHT22;4238;48.404;9.498;2022-07-29T10:32:48;26.50;1.00
8402;DHT22;4238;48.404;9.498;2022-07-29T10:35:40;26.00;1.00
8402;DHT22;4238;48.404;9.498;2022-07-29T10:38:45;26.00;99.90
8402;DHT22;4238;48.404;9.498;2022-07-29T10:41:27;26.20;1.00
8402;DHT22;4238;48.404;9.498;2022-07-29T10:44:02;26.30;1.00
8402;DHT22;4238;48.404;9.498;2022-07-29T10:46:35;26.10;99.90
8402;DHT22;4238;48.404;9.498;2022-07-29T10:49:12;25.40;1.00
8402;DHT22;4238;48.404;9.498;2022-07-29T10:51:54;25.30;1.00
8402;DHT22;4238;48.404;9.498;2022-07-29T10:54:46;25.40;99.90
8402;DHT22;4238;48.404;9.498;2022-07-29T10:57:23;25.30;99.90
8402;DHT22;4238;48.404;9.498;2022-07-29T11:02:57;24.70;99.90
8402;DHT22;4238;48.404;9.498;2022-07-29T11:05:24;24.50;1.00
8402;DHT22;4238;48.404;9.498;2022-07-29T11:08:21;24.50;1.00
8402;DHT22;4238;48.404;9.498;2022-07-29T11:10:50;24.00;13.50
8402;DHT22;4238;48.404;9.498;2022-07-29T11:13:50;23.90;99.90
8402;DHT22;4238;48.404;9.498;2022-07-29T11:16:18;23.70;99.90
8402;DHT22;4238;48.404;9.498;2022-07-29T11:19:21;23.60;99.90
8402;DHT22;4238;48.404;9.498;2022-07-29T11:21:49;23.50;99.90
8402;DHT22;4238;48.404;9.498;2022-07-29T11:24:19;23.60;99.90
8402;DHT22;4238;48.404;9.498;2022-07-29T11:27:06;23.80;99.90
8402;DHT22;4238;48.404;9.498;2022-07-29T11:29:36;24.30;1.00
8402;DHT22;4238;48.404;9.498;2022-07-29T11:32:10;25.00;1.00
8402;DHT22;4238;48.404;9.498;2022-07-29T11:34:37;25.50;43.20
8402;DHT22;4238;48.404;9.498;2022-07-29T11:37:17;25.30;1.00
8402;DHT22;4238;48.404;9.498;2022-07-29T11:39:45;25.70;1.00
8402;DHT22;4238;48.404;9.498;2022-07-29T11:45:25;26.50;99.90
8402;DHT22;4238;48.404;9.498;2022-07-29T11:47:59;26.40;99.90
8402;DHT22;4238;48.404;9.498;2022-07-29T11:50:34;26.60;1.00
8402;DHT22;4238;48.404;9.498;2022-07-29T11:53:03;27.00;1.00
8402;DHT22;4238;48.404;9.498;2022-07-29T11:55:30;27.60;99.90
8402;DHT22;4238;48.404;9.498;2022-07-29T11:58:01;27.30;1.00
8402;DHT22;4238;48.404;9.498;2022-07-29T12:00:32;27.50;1.00
8402;DHT22;4238;48.404;9.498;2022-07-29T12:03:01;27.20;1.00
8402;DHT22;4238;48.404;9.498;2022-07-29T12:05:33;27.60;99.90
8402;DHT22;4238;48.404;9.498;2022-07-29T12:08:08;27.50;99.90
8402;DHT22;4238;48.404;9.498;2022-07-29T12:10:35;27.40;81.30
8402;DHT22;4238;48.404;9.498;2022-07-29T12:13:03;27.60;99.90
8402;DHT22;4238;48.404;9.498;2022-07-29T12:15:31;27.90;75.50
8402;DHT22;4238;48.404;9.498;2022-07-29T12:17:59;27.10;1.00
8402;DHT22;4238;48.404;9.498;2022-07-29T12:20:35;26.90;1.00
8402;DHT22;4238;48.404;9.498;2022-07-29T12:23:05;26.70;1.00
8402;DHT22;4238;48.404;9.498;2022-07-29T12:25:34;26.50;1.00
8402;DHT22;4238;48.404;9.498;2022-07-29T12:28:03;26.40;1.00
8402;DHT22;4238;48.404;9.498;2022-07-29T12:30:42;26.40;1.00
8402;DHT22;4238;48.404;9.498;2022-07-29T12:33:15;26.20;1.00
8402;DHT22;4238;48.404;9.498;2022-07-29T12:35:43;26.20;1.00
8402;DHT22;4238;48.404;9.498;2022-07-29T12:38:12;26.00;99.90
8402;DHT22;4238;48.404;9.498;2022-07-29T12:40:39;26.40;99.90
8402;DHT22;4238;48.404;9.498;2022-07-29T12:43:08;26.60;99.90
8402;DHT22;4238;48.404;9.498;2022-07-29T12:45:38;26.10;99.90
8402;DHT22;4238;48.404;9.498;2022-07-29T12:48:06;26.30;1.00
8402;DHT22;4238;48.404;9.498;2022-07-29T12:50:34;25.90;1.00
8402;DHT22;4238;48.404;9.498;2022-07-29T12:53:09;25.50;1.00
8402;DHT22;4238;48.404;9.498;2022-07-29T12:55:43;25.40;1.00
8402;DHT22;4238;48.404;9.498;2022-07-29T12:58:25;24.90;1.00
8402;DHT22;4238;48.404;9.498;2022-07-29T13:01:01;24.50;99.90
8402;DHT22;4238;48.404;9.498;2022-07-29T13:03:28;24.40;1.00
8402;DHT22;4238;48.404;9.498;2022-07-29T13:05:55;24.30;99.90
8402;DHT22;4238;48.404;9.498;2022-07-29T13:08:22;24.00;1.00
8402;DHT22;4238;48.404;9.498;2022-07-29T13:10:49;24.00;1.00
8402;DHT22;4238;48.404;9.498;2022-07-29T13:13:16;24.00;1.00
8402;DHT22;4238;48.404;9.498;2022-07-29T13:15:44;23.90;1.00
8402;DHT22;4238;48.404;9.498;2022-07-29T13:18:30;24.00;1.00
8402;DHT22;4238;48.404;9.498;2022-07-29T13:21:10;24.50;1.00
8402;DHT22;4238;48.404;9.498;2022-07-29T13:23:37;24.50;99.90
8402;DHT22;4238;48.404;9.498;2022-07-29T13:26:05;24.60;1.00
8402;DHT22;4238;48.404;9.498;2022-07-29T13:28:32;24.50;1.00
8402;DHT22;4238;48.404;9.498;2022-07-29T13:30:59;24.80;99.90
8402;DHT22;4238;48.404;9.498;2022-07-29T13:33:26;24.60;53.30
8402;DHT22;4238;48.404;9.498;2022-07-29T13:35:55;24.60;1.00
8402;DHT22;4238;48.404;9.498;2022-07-29T13:38:22;24.50;99.90
8402;DHT22;4238;48.404;9.498;2022-07-29T13:40:49;24.40;99.90
8402;DHT22;4238;48.404;9.498;2022-07-29T13:43:16;24.20;99.90
8402;DHT22;4238;48.404;9.498;2022-07-29T13:45:43;24.10;99.90
8402;DHT22;4238;48.404;9.498;2022-07-29T13:48:10;23.90;99.90
8402;DHT22;4238;48.404;9.498;2022-07-29T13:50:36;23.50;1.00
8402;DHT22;4238;48.404;9.498;2022-07-29T13:53:05;23.60;1.00
8402;DHT22;4238;48.404;9.498;2022-07-29T13:55:32;23.50;99.90
8402;DHT22;4238;48.404;9.498;2022-07-29T13:57:59;23.20;1.00
8402;DHT22;4238;48.404;9.498;2022-07-29T14:00:26;22.90;1.00
8402;DHT22;4238;48.404;9.498;2022-07-29T14:02:54;23.00;1.00
8402;DHT22;4238;48.404;9.498;2022-07-29T14:05:21;22.90;99.90
8402;DHT22;4238;48.404;9.498;2022-07-29T14:07:48;22.80;1.00
8402;DHT22;4238;48.404;9.498;2022-07-29T14:10:16;22.70;99.90
8402;DHT22;4238;48.404;9.498;2022-07-29T14:12:43;22.70;99.90
8402;DHT22;4238;48.404;9.498;2022-07-29T14:15:10;22.80;68.30
8402;DHT22;4238;48.404;9.498;2022-07-29T14:17:37;22.60;99.90
8402;DHT22;4238;48.404;9.498;2022-07-29T14:20:05;22.50;1.00
8402;DHT22;4238;48.404;9.498;2022-07-29T14:22:32;22.40;81.60
8402;DHT22;4238;48.404;9.498;2022-07-29T14:24:59;22.50;1.00
8402;DHT22;4238;48.404;9.498;2022-07-29T14:27:27;22.60;99.90
8402;DHT22;4238;48.404;9.498;2022-07-29T14:29:54;22.40;1.00
8402;DHT22;4238;48.404;9.498;2022-07-29T14:32:21;22.50;1.00
8402;DHT22;4238;48.404;9.498;2022-07-29T14:34:48;22.50;99.90
8402;DHT22;4238;48.404;9.498;2022-07-29T14:37:15;22.50;99.90
8402;DHT22;4238;48.404;9.498;2022-07-29T14:39:42;22.40;1.00
8402;DHT22;4238;48.404;9.498;2022-07-29T14:42:09;22.30;99.90
8402;DHT22;4238;48.404;9.498;2022-07-29T14:44:37;22.20;99.90
8402;DHT22;4238;48.404;9.498;2022-07-29T14:47:04;22.20;1.00
8402;DHT22;4238;48.404;9.498;2022-07-29T14:49:31;22.20;1.00
8402;DHT22;4238;48.404;9.498;2022-07-29T14:51:58;22.20;99.90
8402;DHT22;4238;48.404;9.498;2022-07-29T14:54:25;22.10;99.90
8402;DHT22;4238;48.404;9.498;2022-07-29T14:56:52;22.10;1.00
8402;DHT22;4238;48.404;9.498;2022-07-29T14:59:22;22.00;1.00
8402;DHT22;4238;48.404;9.498;2022-07-29T15:01:50;22.00;99.90
8402;DHT22;4238;48.404;9.498;2022-07-29T15:04:17;21.80;13.00
8402;DHT22;4238;48.404;9.498;2022-07-29T15:06:45;21.60;99.90
8402;DHT22;4238;48.404;9.498;2022-07-29T15:09:12;21.50;99.90
8402;DHT22;4238;48.404;9.498;2022-07-29T15:11:39;21.60;1.00
8402;DHT22;4238;48.404;9.498;2022-07-29T15:14:06;21.70;99.90
8402;DHT22;4238;48.404;9.498;2022-07-29T15:16:35;21.70;1.00
8402;DHT22;4238;48.404;9.498;2022-07-29T15:19:04;21.70;1.00
8402;DHT22;4238;48.404;9.498;2022-07-29T15:21:31;21.60;99.90
8402;DHT22;4238;48.404;9.498;2022-07-29T15:23:58;21.60;99.90
8402;DHT22;4238;48.404;9.498;2022-07-29T15:26:25;21.70;99.90
8402;DHT22;4238;48.404;9.498;2022-07-29T15:28:52;21.80;1.00
8402;DHT22;4238;48.404;9.498;2022-07-29T15:31:21;21.70;99.90
8402;DHT22;4238;48.404;9.498;2022-07-29T15:33:47;21.70;99.90
8402;DHT22;4238;48.404;9.498;2022-07-29T15:36:16;21.70;99.90
8402;DHT22;4238;48.404;9.498;2022-07-29T15:38:43;21.80;99.90
8402;DHT22;4238;48.404;9.498;2022-07-29T15:41:13;21.80;99.90
8402;DHT22;4238;48.404;9.498;2022-07-29T15:43:43;21.80;1.00
8402;DHT22;4238;48.404;9.498;2022-07-29T15:46:13;21.80;99.90
8402;DHT22;4238;48.404;9.498;2022-07-29T15:48:57;21.80;99.90
8402;DHT22;4238;48.404;9.498;2022-07-29T15:51:26;21.30;1.00
8402;DHT22;4238;48.404;9.498;2022-07-29T15:53:53;21.20;1.00
8402;DHT22;4238;48.404;9.498;2022-07-29T15:56:20;21.20;1.00
8402;DHT22;4238;48.404;9.498;2022-07-29T15:58:47;21.10;1.00
8402;DHT22;4238;48.404;9.498;2022-07-29T16:01:14;21.30;1.00
8402;DHT22;4238;48.404;9.498;2022-07-29T16:03:41;21.30;1.00
8402;DHT22;4238;48.404;9.498;2022-07-29T16:06:08;21.30;1.00
8402;DHT22;4238;48.404;9.498;2022-07-29T16:08:36;21.20;1.00
8402;DHT22;4238;48.404;9.498;2022-07-29T16:11:03;21.30;1.00
8402;DHT22;4238;48.404;9.498;2022-07-29T16:13:30;21.20;1.00
8402;DHT22;4238;48.404;9.498;2022-07-29T16:15:57;21.20;1.00
8402;DHT22;4238;48.404;9.498;2022-07-29T16:18:24;20.80;1.00
8402;DHT22;4238;48.404;9.498;2022-07-29T16:20:51;20.90;1.00
8402;DHT22;4238;48.404;9.498;2022-07-29T16:23:18;21.00;1.00
8402;DHT22;4238;48.404;9.498;2022-07-29T16:25:46;21.00;1.00
8402;DHT22;4238;48.404;9.498;2022-07-29T16:28:13;20.80;1.00
8402;DHT22;4238;48.404;9.498;2022-07-29T16:30:41;20.80;1.00